createdAt,value
2019-05-18T00:01:51.843Z,93.57
2019-05-18T00:04:22.439Z,93.66
2019-05-18T00:06:52.990Z,93.92
2019-05-18T00:09:23.514Z,93.74
2019-05-18T00:11:54.102Z,93.34
2019-05-18T00:14:24.739Z,93.52
2019-05-18T00:16:55.319Z,93.67
2019-05-18T00:19:25.989Z,94.12
2019-05-18T00:21:56.484Z,94.09
2019-05-18T00:24:27.015Z,93.80
2019-05-18T00:26:57.517Z,94.10
2019-05-18T00:29:27.988Z,93.88
2019-05-18T00:31:58.648Z,94.00
2019-05-18T00:34:29.274Z,94.18
2019-05-18T00:36:59.824Z,93.95
2019-05-18T00:39:30.379Z,93.50
2019-05-18T00:42:00.955Z,93.82
2019-05-18T00:44:31.470Z,93.87
2019-05-18T00:47:02.029Z,93.67
2019-05-18T00:49:32.633Z,93.64
2019-05-18T00:52:03.152Z,93.79
2019-05-18T00:54:33.753Z,93.80
2019-05-18T00:57:04.283Z,94.07
2019-05-18T00:59:34.853Z,94.37
2019-05-18T01:02:05.409Z,94.44
2019-05-18T01:04:35.961Z,94.31
2019-05-18T01:07:06.805Z,94.49
2019-05-18T01:09:37.566Z,94.37
2019-05-18T01:12:08.136Z,94.31
2019-05-18T01:14:38.610Z,94.45
2019-05-18T01:17:09.451Z,94.73
2019-05-18T01:19:40.831Z,94.29
2019-05-18T01:22:11.356Z,94.38
2019-05-18T01:24:41.907Z,94.60
2019-05-18T01:27:12.512Z,94.80
2019-05-18T01:29:43.046Z,94.91
2019-05-18T01:32:13.749Z,94.53
2019-05-18T01:34:44.410Z,94.20
2019-05-18T01:37:19.297Z,94.22
2019-05-18T01:39:49.828Z,94.18
2019-05-18T01:42:20.344Z,93.95
2019-05-18T01:44:50.871Z,93.98
2019-05-18T01:47:21.870Z,94.39
2019-05-18T01:49:52.398Z,94.77
2019-05-18T01:52:22.944Z,94.68
2019-05-18T01:54:53.456Z,94.58
2019-05-18T01:57:24.109Z,94.79
2019-05-18T01:59:54.595Z,95.13
2019-05-18T02:02:25.128Z,94.98
2019-05-18T02:04:55.658Z,95.09
2019-05-18T02:07:26.123Z,94.97
2019-05-18T02:09:56.643Z,94.95
2019-05-18T02:12:27.116Z,95.07
2019-05-18T02:14:57.642Z,94.99
2019-05-18T02:17:28.177Z,94.71
2019-05-18T02:19:58.597Z,95.00
2019-05-18T02:22:29.116Z,95.29
2019-05-18T02:24:59.627Z,95.22
2019-05-18T02:27:30.104Z,95.22
2019-05-18T02:30:00.618Z,95.16
2019-05-18T02:32:31.163Z,95.10
2019-05-18T02:35:01.564Z,94.90
2019-05-18T02:37:32.091Z,94.99
2019-05-18T02:40:02.617Z,94.83
2019-05-18T02:42:33.355Z,94.62
2019-05-18T02:45:04.091Z,94.89
2019-05-18T02:47:34.636Z,94.58
2019-05-18T02:50:05.682Z,95.07
2019-05-18T02:52:36.168Z,95.51
2019-05-18T02:55:07.722Z,95.61
2019-05-18T02:57:38.254Z,95.84
2019-05-18T03:00:10.292Z,95.88
2019-05-18T03:02:40.784Z,95.66
2019-05-18T03:05:11.602Z,95.73
2019-05-18T03:07:42.142Z,95.93
2019-05-18T03:10:12.840Z,95.79
2019-05-18T03:12:43.691Z,95.88
2019-05-18T03:15:15.124Z,95.90
2019-05-18T03:17:45.658Z,96.11
2019-05-18T03:20:16.803Z,96.14
2019-05-18T03:22:47.360Z,96.22
2019-05-18T03:25:18.830Z,96.54
2019-05-18T03:27:49.404Z,96.74
2019-05-18T03:30:21.919Z,96.81
2019-05-18T03:32:52.555Z,96.90
2019-05-18T03:35:23.270Z,96.59
2019-05-18T03:37:53.906Z,96.48
2019-05-18T03:40:24.413Z,96.50
2019-05-18T04:09:52.338Z,96.67
2019-05-18T04:12:22.977Z,96.95
2019-05-18T04:14:53.590Z,96.79
2019-05-18T04:17:24.346Z,96.61
2019-05-18T04:19:54.883Z,96.54
2019-05-18T04:22:25.471Z,96.62
2019-05-18T04:24:56.246Z,96.69
2019-05-18T04:27:26.917Z,96.62
2019-05-18T04:29:57.589Z,96.28
2019-05-18T04:32:28.220Z,95.75
2019-05-18T04:34:58.880Z,95.51
2019-05-18T04:37:29.510Z,95.29
2019-05-18T04:40:00.399Z,95.31
2019-05-18T04:42:31.029Z,95.42
2019-05-18T04:45:01.621Z,95.57
2019-05-18T04:47:32.256Z,95.46
2019-05-18T04:50:05.722Z,95.32
2019-05-18T04:52:35.262Z,95.06
2019-05-18T04:55:06.011Z,94.79
2019-05-18T04:57:36.674Z,94.82
2019-05-18T05:00:08.774Z,94.62
2019-05-18T05:02:39.392Z,94.33
2019-05-18T05:05:10.313Z,94.52
2019-05-18T05:07:40.970Z,94.52
2019-05-18T05:10:11.838Z,94.61
2019-05-18T05:12:42.464Z,94.33
2019-05-18T05:15:13.688Z,94.14
2019-05-18T05:17:44.322Z,93.92
2019-05-18T05:20:20.140Z,93.77
2019-05-18T05:22:49.397Z,93.91
2019-05-18T05:25:20.241Z,94.10
2019-05-18T05:27:50.909Z,94.01
2019-05-18T05:30:21.519Z,93.43
2019-05-18T05:32:52.034Z,93.19
2019-05-18T05:35:22.563Z,93.41
2019-05-18T05:37:53.083Z,93.38
2019-05-18T05:40:23.722Z,93.23
2019-05-18T05:42:54.246Z,92.80
2019-05-18T05:45:24.821Z,92.46
2019-05-18T05:47:55.350Z,92.04
2019-05-18T05:50:35.090Z,91.81
2019-05-18T05:52:58.200Z,91.43
2019-05-18T05:55:28.983Z,91.85
2019-05-18T05:57:59.632Z,91.50
2019-05-18T06:00:30.187Z,90.88
2019-05-18T06:03:00.670Z,90.32
2019-05-18T06:05:31.340Z,90.07
2019-05-18T06:08:01.945Z,89.46
2019-05-18T06:10:32.507Z,89.64
2019-05-18T06:13:03.066Z,89.12
2019-05-18T06:15:33.644Z,88.95
2019-05-18T06:18:04.207Z,88.88
2019-05-18T06:20:50.130Z,89.12
2019-05-18T06:23:06.947Z,88.18
2019-05-18T06:25:37.538Z,88.14
2019-05-18T06:28:08.060Z,88.58
2019-05-18T06:30:39.396Z,88.50
2019-05-18T06:33:09.901Z,88.21
2019-05-18T06:35:40.414Z,88.09
2019-05-18T06:38:10.968Z,87.92
2019-05-18T06:40:41.477Z,88.46
2019-05-18T06:43:12.036Z,87.60
2019-05-18T06:45:42.548Z,86.89
2019-05-18T06:48:13.101Z,86.65
2019-05-18T06:50:44.775Z,87.27
2019-05-18T06:53:15.383Z,86.83
2019-05-18T06:55:45.934Z,86.86
2019-05-18T06:58:17.062Z,87.80
2019-05-18T07:00:47.612Z,87.37
2019-05-18T07:03:18.148Z,87.29
2019-05-18T07:05:48.582Z,86.35
2019-05-18T07:08:19.130Z,85.44
2019-05-18T07:10:49.628Z,86.30
2019-05-18T07:13:20.109Z,85.35
2019-05-18T07:15:50.813Z,84.54
2019-05-18T07:18:21.348Z,84.67
2019-05-18T07:20:51.884Z,84.94
2019-05-18T07:23:22.517Z,85.79
2019-05-18T07:25:53.036Z,85.02
2019-05-18T07:28:23.577Z,84.67
2019-05-18T07:30:54.133Z,84.07
2019-05-18T07:33:24.825Z,84.77
2019-05-18T07:35:55.424Z,83.74
2019-05-18T07:38:26.216Z,83.46
2019-05-18T07:40:57.090Z,82.90
2019-05-18T07:43:27.851Z,84.26
2019-05-18T07:46:08.661Z,85.07
2019-05-18T07:48:38.456Z,83.66
2019-05-18T07:51:09.242Z,82.27
2019-05-18T07:53:39.811Z,80.97
2019-05-18T07:56:10.448Z,80.86
2019-05-18T07:58:41.146Z,83.62
2019-05-18T08:01:11.684Z,83.00
2019-05-18T08:03:42.244Z,83.31
2019-05-18T08:06:12.781Z,81.04
2019-05-18T08:08:43.327Z,81.86
2019-05-18T08:11:13.882Z,81.38
2019-05-18T08:13:44.425Z,80.26
2019-05-18T08:16:14.926Z,81.17
2019-05-18T08:18:45.468Z,81.26
2019-05-18T08:21:16.174Z,78.74
2019-05-18T08:23:46.910Z,79.11
2019-05-18T08:26:17.443Z,77.80
2019-05-18T08:28:48.008Z,80.19
2019-05-18T08:31:18.621Z,79.29
2019-05-18T08:33:49.137Z,80.07
2019-05-18T08:36:19.751Z,77.72
2019-05-18T08:38:50.290Z,77.69
2019-05-18T08:41:20.772Z,77.83
2019-05-18T08:43:51.267Z,76.88
2019-05-18T08:46:21.728Z,75.97
2019-05-18T08:48:52.418Z,75.63
2019-05-18T08:51:23.087Z,76.93
2019-05-18T08:53:53.673Z,77.20
2019-05-18T08:56:24.234Z,77.57
2019-05-18T08:58:54.730Z,76.33
2019-05-18T09:01:25.211Z,76.53
2019-05-18T09:03:55.751Z,78.21
2019-05-18T09:06:26.302Z,78.07
2019-05-18T09:08:56.778Z,76.68
2019-05-18T09:11:27.258Z,75.83
2019-05-18T09:13:57.833Z,76.79
2019-05-18T09:16:28.333Z,75.72
2019-05-18T09:18:58.797Z,77.52
2019-05-18T09:21:29.430Z,74.76
2019-05-18T09:24:00.429Z,74.51
2019-05-18T09:26:31.241Z,73.71
2019-05-18T09:29:02.112Z,74.39
2019-05-18T09:31:32.683Z,76.02
2019-05-18T09:34:03.215Z,70.29
2019-05-18T09:36:33.782Z,72.00
2019-05-18T09:39:05.021Z,70.90
2019-05-18T09:56:51.377Z,71.37
2019-05-18T09:59:21.850Z,74.19
2019-05-18T10:01:52.545Z,72.69
2019-05-18T10:04:23.094Z,70.65
2019-05-18T10:06:53.700Z,73.72
2019-05-18T10:09:24.408Z,71.69
2019-05-18T10:11:55.005Z,70.29
2019-05-18T10:14:25.624Z,70.85
2019-05-18T10:16:56.186Z,68.62
2019-05-18T10:19:26.737Z,68.06
2019-05-18T10:21:57.328Z,69.25
2019-05-18T10:24:27.852Z,68.94
2019-05-18T10:26:58.426Z,67.64
2019-05-18T10:29:28.994Z,69.34
2019-05-18T10:31:59.538Z,66.19
2019-05-18T10:34:30.206Z,69.76
2019-05-18T10:37:00.700Z,69.38
2019-05-18T10:39:31.358Z,68.24
2019-05-18T10:42:01.917Z,67.20
2019-05-18T10:44:32.454Z,69.21
2019-05-18T10:47:02.998Z,67.89
2019-05-18T10:49:33.700Z,68.80
2019-05-18T10:52:04.764Z,68.17
2019-05-18T10:54:35.784Z,67.13
2019-05-18T10:57:06.359Z,68.39
2019-05-18T10:59:37.695Z,68.95
2019-05-18T11:02:08.423Z,68.66
2019-05-18T11:04:39.015Z,68.44
2019-05-18T11:07:09.547Z,69.45
2019-05-18T11:09:40.266Z,68.18
2019-05-18T11:12:11.048Z,66.95
2019-05-18T11:14:41.595Z,66.49
2019-05-18T11:17:12.155Z,64.97
2019-05-18T11:19:42.681Z,63.39
2019-05-18T11:22:13.450Z,63.97
2019-05-18T11:24:44.017Z,65.62
2019-05-18T11:27:14.583Z,65.26
2019-05-18T11:29:45.124Z,63.21
2019-05-18T11:32:15.669Z,64.01
2019-05-18T11:34:46.309Z,64.59
2019-05-18T11:37:16.846Z,64.38
2019-05-18T11:39:47.481Z,63.46
2019-05-18T11:42:18.062Z,61.31
2019-05-18T11:44:48.626Z,61.68
2019-05-18T11:47:19.699Z,64.43
2019-05-18T11:49:50.256Z,61.28
2019-05-18T11:52:20.808Z,58.82
2019-05-18T11:54:51.425Z,60.35
2019-05-18T11:57:22.064Z,62.81
2019-05-18T11:59:52.701Z,62.50
2019-05-18T12:02:23.288Z,64.59
2019-05-18T12:04:53.777Z,58.95
2019-05-18T12:07:24.317Z,57.57
2019-05-18T12:09:54.950Z,56.85
2019-05-18T12:12:25.547Z,58.02
2019-05-18T12:14:56.190Z,60.22
2019-05-18T12:17:30.652Z,58.06
2019-05-18T12:20:01.162Z,56.79
2019-05-18T12:22:31.731Z,53.92
2019-05-18T12:25:02.313Z,54.56
2019-05-18T12:27:33.155Z,51.22
2019-05-18T12:30:03.777Z,49.28
2019-05-18T12:32:34.233Z,48.14
2019-05-18T12:35:05.253Z,47.22
2019-05-18T12:37:35.804Z,47.27
2019-05-18T12:40:07.209Z,44.03
2019-05-18T12:42:37.773Z,43.62
2019-05-18T12:45:09.752Z,41.14
2019-05-18T12:47:40.313Z,39.76
2019-05-18T12:50:13.446Z,39.86
2019-05-18T12:52:44.037Z,41.93
2019-05-18T12:55:16.371Z,40.94
2019-05-18T12:57:46.881Z,47.73
2019-05-18T13:00:19.012Z,48.46
2019-05-18T13:02:49.729Z,45.23
2019-05-18T13:05:20.417Z,41.57
2019-05-18T13:07:51.003Z,39.57
2019-05-18T13:10:22.169Z,37.90
2019-05-18T13:12:52.719Z,34.36
2019-05-18T13:15:23.791Z,36.76
2019-05-18T13:17:54.460Z,38.98
2019-05-18T13:20:25.055Z,38.17
2019-05-18T13:22:55.598Z,37.59
2019-05-18T13:25:26.146Z,33.54
2019-05-18T13:27:58.117Z,37.63
2019-05-18T13:30:28.998Z,41.01
2019-05-18T13:32:59.618Z,45.15
2019-05-18T13:35:30.152Z,46.56
2019-05-18T13:38:00.974Z,49.31
2019-05-18T13:40:31.483Z,45.49
2019-05-18T13:43:02.084Z,41.46
2019-05-18T13:45:33.292Z,38.35
2019-05-18T13:48:03.860Z,38.56
2019-05-18T13:50:34.405Z,36.29
2019-05-18T13:53:04.965Z,36.96
2019-05-18T13:55:35.901Z,33.04
2019-05-18T13:58:06.808Z,36.53
2019-05-18T14:00:37.437Z,40.92
2019-05-18T14:03:07.955Z,42.58
2019-05-18T14:05:38.488Z,45.89
2019-05-18T14:08:09.081Z,46.07
2019-05-18T14:10:39.633Z,43.78
2019-05-18T14:13:10.163Z,46.29
2019-05-18T14:15:40.754Z,45.12
2019-05-18T14:18:11.370Z,43.44
2019-05-18T14:20:41.899Z,46.97
2019-05-18T14:23:12.565Z,45.92
2019-05-18T14:25:46.053Z,39.08
2019-05-18T14:28:15.457Z,39.59
2019-05-18T14:30:46.094Z,37.27
2019-05-18T14:33:16.810Z,36.69
2019-05-18T14:35:47.411Z,36.53
2019-05-18T14:38:17.978Z,38.13
2019-05-18T14:40:48.527Z,38.23
2019-05-18T14:43:19.071Z,37.28
2019-05-18T14:45:49.761Z,38.39
2019-05-18T14:48:20.438Z,35.77
2019-05-18T14:50:50.930Z,36.85
2019-05-18T14:53:21.581Z,36.26
2019-05-18T14:55:52.183Z,37.02
2019-05-18T14:58:22.784Z,36.49
2019-05-18T15:00:55.049Z,37.46
2019-05-18T15:03:25.725Z,38.73
2019-05-18T15:05:56.260Z,36.30
2019-05-18T15:08:27.245Z,37.99
2019-05-18T15:10:57.749Z,37.29
2019-05-18T15:13:28.290Z,36.54
2019-05-18T15:15:58.843Z,36.86
2019-05-18T15:18:29.487Z,41.79
2019-05-18T15:20:59.974Z,41.73
2019-05-18T15:23:30.678Z,43.02
2019-05-18T15:26:01.322Z,45.21
2019-05-18T15:28:32.025Z,47.36
2019-05-18T15:31:02.736Z,49.18
2019-05-18T15:33:33.274Z,49.13
2019-05-18T15:36:03.849Z,45.81
2019-05-18T15:38:34.445Z,44.26
2019-05-18T15:41:04.875Z,42.73
2019-05-18T15:43:35.357Z,42.00
2019-05-18T15:46:05.855Z,38.46
2019-05-18T15:48:36.408Z,38.72
2019-05-18T15:51:06.904Z,40.07
2019-05-18T15:53:37.403Z,41.72
2019-05-18T15:56:07.865Z,40.64
2019-05-18T15:58:38.388Z,42.33
2019-05-18T16:01:08.906Z,43.63
2019-05-18T16:03:39.399Z,45.26
2019-05-18T16:06:09.867Z,42.61
2019-05-18T16:08:40.382Z,43.09
2019-05-18T16:11:10.856Z,42.03
2019-05-18T16:13:41.362Z,42.22
2019-05-18T16:16:11.840Z,42.36
2019-05-18T16:18:42.685Z,44.53
2019-05-18T16:21:13.175Z,43.80
2019-05-18T16:23:43.662Z,43.03
2019-05-18T16:26:21.702Z,44.79
2019-05-18T16:28:46.381Z,44.78
2019-05-18T16:31:16.865Z,45.42
2019-05-18T16:33:47.354Z,45.35
2019-05-18T16:36:17.807Z,44.75
2019-05-18T16:38:48.346Z,47.13
2019-05-18T16:41:21.460Z,48.58
2019-05-18T16:43:51.056Z,49.32
2019-05-18T16:46:21.652Z,51.16
2019-05-18T16:48:52.110Z,50.93
2019-05-18T16:51:22.568Z,49.54
2019-05-18T16:53:53.110Z,51.70
2019-05-18T16:56:34.510Z,52.76
2019-05-18T16:58:55.788Z,53.95
2019-05-18T17:01:26.285Z,56.49
2019-05-18T17:03:56.820Z,56.05
2019-05-18T17:06:27.385Z,56.60
2019-05-18T17:08:57.992Z,57.45
2019-05-18T17:11:28.499Z,57.46
2019-05-18T17:13:58.971Z,57.92
2019-05-18T17:16:29.493Z,58.15
2019-05-18T17:18:59.962Z,58.78
2019-05-18T17:21:30.436Z,58.79
2019-05-18T17:24:00.932Z,58.94
2019-05-18T17:26:31.546Z,59.09
2019-05-18T17:29:02.048Z,59.83
2019-05-18T17:31:32.634Z,61.80
2019-05-18T17:34:03.079Z,62.59
2019-05-18T17:36:33.758Z,63.79
2019-05-18T17:39:05.520Z,63.85
2019-05-18T17:41:36.010Z,65.07
2019-05-18T17:44:06.495Z,65.71
2019-05-18T17:46:37.000Z,65.81
2019-05-18T17:49:07.526Z,66.67
2019-05-18T17:51:38.039Z,66.45
2019-05-18T17:54:08.600Z,66.55
2019-05-18T17:56:39.074Z,66.99
2019-05-18T17:59:09.590Z,67.56
2019-05-18T18:01:40.119Z,67.35
2019-05-18T18:04:10.605Z,66.73
2019-05-18T18:06:41.069Z,67.65
2019-05-18T18:09:11.587Z,67.11
2019-05-18T18:11:42.080Z,68.25
2019-05-18T18:14:12.566Z,68.22
2019-05-18T18:16:43.076Z,68.29
2019-05-18T18:19:13.567Z,67.99
2019-05-18T18:21:44.053Z,68.14
2019-05-18T18:24:14.658Z,68.88
2019-05-18T18:26:45.129Z,68.66
2019-05-18T18:29:15.702Z,69.61
2019-05-18T18:31:46.303Z,69.47
2019-05-18T18:34:16.841Z,70.86
2019-05-18T18:36:47.553Z,71.24
2019-05-18T18:39:18.115Z,71.07
2019-05-18T18:41:48.634Z,71.91
2019-05-18T18:44:19.205Z,71.24
2019-05-18T18:46:49.719Z,71.33
2019-05-18T18:49:20.170Z,71.12
2019-05-18T18:51:50.674Z,71.59
2019-05-18T18:54:21.218Z,71.26
2019-05-18T18:56:51.716Z,71.04
2019-05-18T18:59:22.257Z,70.96
2019-05-18T19:01:52.769Z,70.87
2019-05-18T19:04:23.270Z,71.17
2019-05-18T19:06:53.871Z,71.18
2019-05-18T19:09:24.382Z,71.65
2019-05-18T19:11:54.929Z,72.17
2019-05-18T19:14:25.440Z,71.89
2019-05-18T19:16:56.002Z,72.06
2019-05-18T19:19:26.475Z,72.36
2019-05-18T19:21:56.954Z,72.27
2019-05-18T19:24:27.513Z,72.49
2019-05-18T19:26:58.044Z,73.55
2019-05-18T19:29:28.582Z,74.09
2019-05-18T19:31:59.146Z,73.53
2019-05-18T19:34:29.652Z,73.70
2019-05-18T19:37:00.146Z,74.07
2019-05-18T19:39:30.674Z,73.37
2019-05-18T19:42:01.260Z,74.52
2019-05-18T19:44:31.699Z,74.11
2019-05-18T19:47:02.268Z,73.99
2019-05-18T19:49:32.817Z,74.63
2019-05-18T19:52:03.281Z,75.34
2019-05-18T19:54:33.870Z,75.01
2019-05-18T19:57:04.376Z,76.09
2019-05-18T19:59:34.839Z,76.19
2019-05-18T20:02:05.652Z,76.64
2019-05-18T20:04:36.145Z,77.33
2019-05-18T20:07:06.635Z,76.63
2019-05-18T20:09:37.175Z,77.82
2019-05-18T20:12:07.661Z,77.21
2019-05-18T20:14:38.149Z,78.20
2019-05-18T20:17:08.713Z,78.39
2019-05-18T20:19:39.949Z,78.75
2019-05-18T20:22:10.664Z,79.18
2019-05-18T20:24:41.281Z,79.75
2019-05-18T20:27:11.746Z,79.45
2019-05-18T20:29:42.280Z,80.12
2019-05-18T20:32:12.883Z,80.45
2019-05-18T20:34:43.363Z,80.15
2019-05-18T20:37:13.909Z,80.91
2019-05-18T20:39:44.365Z,80.96
2019-05-18T20:42:14.877Z,80.59
2019-05-18T20:44:45.404Z,80.74
2019-05-18T20:47:15.904Z,81.42
2019-05-18T20:49:46.435Z,81.26
2019-05-18T20:52:16.913Z,81.75
2019-05-18T20:54:47.420Z,81.87
2019-05-18T20:57:17.929Z,82.27
2019-05-18T20:59:48.422Z,82.21
2019-05-18T21:02:18.916Z,81.75
2019-05-18T21:04:49.517Z,82.10
2019-05-18T21:07:19.997Z,82.57
2019-05-18T21:09:50.515Z,82.27
2019-05-18T21:12:21.012Z,82.49
2019-05-18T21:14:51.514Z,83.51
2019-05-18T21:17:22.066Z,83.02
2019-05-18T21:19:52.521Z,82.77
2019-05-18T21:22:23.021Z,83.68
2019-05-18T21:24:53.609Z,83.78
2019-05-18T21:27:24.094Z,84.41
2019-05-18T21:29:54.565Z,84.17
2019-05-18T21:32:25.057Z,84.93
2019-05-18T21:34:55.589Z,85.43
2019-05-18T21:37:26.081Z,85.33
2019-05-18T21:39:56.594Z,84.53
2019-05-18T21:42:27.146Z,84.70
2019-05-18T21:44:57.637Z,84.42
2019-05-18T21:47:28.191Z,85.60
2019-05-18T21:49:58.892Z,85.72
2019-05-18T21:52:33.277Z,85.48
2019-05-18T21:55:03.827Z,85.88
2019-05-18T21:57:34.355Z,85.30
2019-05-18T22:00:06.660Z,85.88
2019-05-18T22:02:37.300Z,85.90
2019-05-18T22:05:08.505Z,85.80
2019-05-18T22:07:39.120Z,86.22
2019-05-18T22:10:24.906Z,86.61
2019-05-18T22:12:43.554Z,86.41
2019-05-18T22:15:14.659Z,85.66
2019-05-18T22:18:03.486Z,86.40
2019-05-18T22:20:39.867Z,86.88
2019-05-18T22:23:08.605Z,86.66
2019-05-18T22:25:39.152Z,86.72
2019-05-18T22:28:09.638Z,87.11
2019-05-18T22:30:41.275Z,87.64
2019-05-18T22:33:11.785Z,87.57
2019-05-18T22:35:42.283Z,87.73
2019-05-18T22:38:12.791Z,87.38
2019-05-18T22:40:43.320Z,87.31
2019-05-18T22:43:13.791Z,88.04
2019-05-18T22:45:44.312Z,87.70
2019-05-18T22:48:14.851Z,87.67
2019-05-18T22:50:45.473Z,87.69
2019-05-18T22:53:16.017Z,88.55
2019-05-18T22:55:46.561Z,88.79
2019-05-18T22:58:17.059Z,88.53
2019-05-18T23:00:47.566Z,89.03
2019-05-18T23:03:18.201Z,88.79
2019-05-18T23:05:48.786Z,89.02
2019-05-18T23:08:19.300Z,89.25
2019-05-18T23:10:49.786Z,89.08
2019-05-18T23:13:20.297Z,89.73
2019-05-18T23:15:50.900Z,89.40
2019-05-18T23:18:21.734Z,89.46
2019-05-18T23:20:52.299Z,90.14
2019-05-18T23:23:22.828Z,90.14
2019-05-18T23:25:53.378Z,90.79
2019-05-18T23:28:23.880Z,91.41
2019-05-18T23:30:54.362Z,91.48
2019-05-18T23:33:26.508Z,91.37
2019-05-18T23:35:56.996Z,91.42
2019-05-18T23:38:27.562Z,91.79
2019-05-18T23:40:58.045Z,91.57
2019-05-18T23:43:28.944Z,91.38
2019-05-18T23:45:59.556Z,91.98
2019-05-18T23:48:30.095Z,92.47
2019-05-18T23:51:00.568Z,92.11
2019-05-18T23:53:31.753Z,92.08
2019-05-18T23:56:02.702Z,92.28
2019-05-18T23:58:33.352Z,92.77
